createdAt,value
2022-12-14T00:02:08.366Z,15.65
2022-12-14T00:04:41.327Z,15.63
2022-12-14T00:07:14.565Z,13.70
2022-12-14T00:09:47.477Z,14.82
2022-12-14T00:12:20.424Z,15.82
2022-12-14T00:14:53.711Z,20.02
2022-12-14T00:17:28.392Z,13.90
2022-12-14T00:20:01.381Z,15.57
2022-12-14T00:22:34.385Z,16.58
2022-12-14T00:25:08.464Z,15.20
2022-12-14T00:27:44.497Z,16.35
2022-12-14T00:30:20.636Z,19.80
2022-12-14T00:32:55.047Z,15.27
2022-12-14T00:35:28.329Z,16.15
2022-12-14T00:38:01.451Z,16.77
2022-12-14T00:40:34.359Z,17.70
2022-12-14T00:43:07.270Z,19.40
2022-12-14T00:45:40.347Z,18.23
2022-12-14T00:48:16.339Z,19.33
2022-12-14T00:50:50.997Z,15.18
2022-12-14T00:53:24.771Z,18.65
2022-12-14T00:55:58.863Z,19.15
2022-12-14T00:58:32.022Z,18.08
2022-12-14T01:01:07.956Z,18.92
2022-12-14T01:03:42.645Z,20.17
2022-12-14T01:06:17.324Z,19.20
2022-12-14T01:08:50.600Z,16.63
2022-12-14T01:11:23.751Z,20.33
2022-12-14T01:13:57.134Z,18.85
2022-12-14T01:16:30.129Z,19.90
2022-12-14T01:19:05.211Z,20.50
2022-12-14T01:21:38.222Z,17.98
2022-12-14T01:24:11.360Z,20.85
2022-12-14T01:26:44.351Z,18.42
2022-12-14T01:29:17.676Z,20.05
2022-12-14T01:31:50.690Z,18.25
2022-12-14T01:34:25.163Z,19.02
2022-12-14T01:36:58.136Z,18.65
2022-12-14T01:39:31.483Z,26.00
2022-12-14T01:42:04.876Z,22.15
2022-12-14T01:44:57.356Z,20.85
2022-12-14T01:47:38.460Z,19.25
2022-12-14T01:50:21.352Z,21.25
2022-12-14T01:52:58.000Z,17.33
2022-12-14T01:55:35.645Z,20.05
2022-12-14T01:58:12.490Z,20.55
2022-12-14T02:00:45.977Z,20.85
2022-12-14T02:03:23.952Z,20.17
2022-12-14T02:06:02.355Z,21.30
2022-12-14T02:08:35.948Z,18.20
2022-12-14T02:11:08.893Z,20.33
2022-12-14T02:13:43.803Z,19.40
2022-12-14T02:16:21.657Z,19.35
2022-12-14T02:18:54.836Z,19.90
2022-12-14T02:21:45.709Z,18.45
2022-12-14T02:24:44.471Z,17.30
2022-12-14T02:27:38.346Z,17.38
2022-12-14T02:30:16.076Z,17.85
2022-12-14T02:33:14.143Z,17.33
2022-12-14T02:35:51.968Z,16.77
2022-12-14T02:38:43.234Z,19.15
2022-12-14T02:41:23.904Z,21.40
2022-12-14T02:44:06.982Z,19.85
2022-12-14T02:46:50.567Z,23.23
2022-12-14T02:49:35.900Z,18.45
2022-12-14T02:52:15.616Z,18.60
2022-12-14T02:54:55.977Z,20.37
2022-12-14T02:57:31.970Z,21.38
2022-12-14T03:00:08.143Z,18.58
2022-12-14T03:02:44.843Z,20.23
2022-12-14T03:05:18.092Z,20.50
2022-12-14T03:07:54.103Z,20.92
2022-12-14T03:10:36.304Z,19.63
2022-12-14T03:13:16.557Z,20.30
2022-12-14T03:15:56.902Z,20.00
2022-12-14T03:18:37.047Z,18.63
2022-12-14T03:21:13.057Z,18.80
2022-12-14T03:23:48.863Z,22.30
2022-12-14T03:26:27.203Z,18.33
2022-12-14T03:29:06.899Z,18.42
2022-12-14T03:31:49.153Z,19.95
2022-12-14T03:34:29.660Z,18.13
2022-12-14T03:37:10.724Z,20.42
2022-12-14T03:39:47.058Z,18.40
2022-12-14T03:42:24.920Z,17.35
2022-12-14T03:45:06.906Z,19.83
2022-12-14T03:47:55.092Z,19.08
2022-12-14T03:50:35.532Z,20.00
2022-12-14T03:53:16.846Z,24.15
2022-12-14T03:56:00.570Z,19.98
2022-12-14T03:58:39.172Z,24.67
2022-12-14T04:01:18.494Z,22.67
2022-12-14T04:03:57.190Z,19.25
2022-12-14T04:06:39.366Z,21.58
2022-12-14T04:09:23.937Z,21.55
2022-12-14T04:12:20.601Z,22.98
2022-12-14T04:15:24.370Z,19.05
2022-12-14T04:18:17.927Z,19.80
2022-12-14T04:20:55.025Z,17.75
2022-12-14T04:23:51.889Z,21.65
2022-12-14T04:26:31.154Z,21.45
2022-12-14T04:29:25.992Z,20.27
2022-12-14T04:32:05.954Z,19.52
2022-12-14T04:34:42.877Z,19.73
2022-12-14T04:37:20.439Z,22.95
2022-12-14T04:40:00.540Z,18.25
2022-12-14T04:42:37.507Z,22.10
2022-12-14T04:45:15.982Z,21.73
2022-12-14T04:47:59.119Z,22.70
2022-12-14T04:50:36.792Z,21.35
2022-12-14T04:53:13.373Z,22.90
2022-12-14T04:55:53.852Z,23.20
2022-12-14T04:58:29.531Z,20.80
2022-12-14T05:01:19.040Z,21.30
2022-12-14T05:04:00.955Z,20.98
2022-12-14T05:09:18.857Z,19.92
2022-12-14T05:12:01.925Z,18.75
2022-12-14T05:14:41.003Z,19.80
2022-12-14T05:17:15.306Z,24.40
2022-12-14T05:19:49.278Z,22.63
2022-12-14T05:22:22.780Z,22.48
2022-12-14T05:24:56.087Z,20.63
2022-12-14T05:27:30.869Z,25.10
2022-12-14T05:30:04.246Z,20.63
2022-12-14T05:32:37.398Z,21.98
2022-12-14T05:35:13.903Z,23.13
2022-12-14T05:37:49.398Z,20.75
2022-12-14T05:40:22.634Z,24.15
2022-12-14T05:43:06.724Z,21.92
2022-12-14T05:45:39.979Z,22.25
2022-12-14T05:48:12.915Z,25.08
2022-12-14T05:50:45.981Z,24.80
2022-12-14T05:53:18.868Z,24.00
2022-12-14T05:55:53.325Z,24.17
2022-12-14T05:58:27.647Z,26.17
2022-12-14T06:01:02.357Z,25.75
2022-12-14T06:03:36.088Z,26.23
2022-12-14T06:06:11.145Z,28.60
2022-12-14T06:08:46.045Z,22.08
2022-12-14T06:11:21.007Z,24.60
2022-12-14T06:13:55.204Z,23.10
2022-12-14T06:16:28.254Z,21.60
2022-12-14T06:19:02.752Z,24.98
2022-12-14T06:21:37.013Z,22.30
2022-12-14T06:24:12.120Z,24.13
2022-12-14T06:26:45.505Z,23.48
2022-12-14T06:29:21.158Z,24.63
2022-12-14T06:31:54.061Z,26.75
2022-12-14T06:34:28.726Z,22.75
2022-12-14T06:37:02.042Z,24.20
2022-12-14T06:39:35.311Z,23.55
2022-12-14T06:42:08.509Z,22.75
2022-12-14T06:44:43.046Z,24.23
2022-12-14T06:47:16.140Z,22.27
2022-12-14T06:49:51.269Z,24.45
2022-12-14T06:52:26.956Z,21.23
2022-12-14T06:55:00.581Z,23.23
2022-12-14T06:57:33.616Z,22.90
2022-12-14T07:00:12.200Z,23.13
2022-12-14T07:02:45.234Z,23.73
2022-12-14T07:05:18.925Z,23.50
2022-12-14T07:07:52.333Z,20.65
2022-12-14T07:10:25.252Z,24.13
2022-12-14T07:13:01.154Z,23.52
2022-12-14T07:15:35.799Z,25.67
2022-12-14T07:18:09.111Z,25.77
2022-12-14T07:20:42.154Z,26.83
2022-12-14T07:23:15.193Z,25.67
2022-12-14T07:25:49.186Z,23.10
2022-12-14T07:28:22.744Z,27.75
2022-12-14T07:30:58.465Z,28.30
2022-12-14T07:33:31.672Z,25.33
2022-12-14T07:36:07.162Z,25.48
2022-12-14T07:38:42.278Z,24.70
2022-12-14T07:41:22.117Z,31.60
2022-12-14T07:43:57.247Z,26.92
2022-12-14T07:46:33.197Z,28.00
2022-12-14T07:49:06.186Z,28.75
2022-12-14T07:51:42.371Z,25.80
2022-12-14T07:54:16.314Z,31.50
2022-12-14T07:56:50.945Z,22.15
2022-12-14T07:59:23.990Z,24.35
2022-12-14T08:01:58.482Z,26.42
2022-12-14T08:04:31.785Z,27.13
2022-12-14T08:07:07.147Z,29.15
2022-12-14T08:09:40.165Z,29.27
2022-12-14T08:12:16.258Z,29.55
2022-12-14T08:14:49.997Z,30.98
2022-12-14T08:17:24.516Z,26.60
2022-12-14T08:19:57.613Z,25.55
2022-12-14T08:22:30.710Z,31.05
2022-12-14T08:25:03.556Z,31.73
2022-12-14T08:27:36.951Z,26.70
2022-12-14T08:30:11.219Z,36.78
2022-12-14T08:32:45.675Z,31.38
2022-12-14T08:35:18.855Z,30.27
2022-12-14T08:37:53.481Z,29.83
2022-12-14T08:40:26.819Z,27.73
2022-12-14T08:42:59.685Z,30.48
2022-12-14T08:45:33.822Z,31.65
2022-12-14T08:48:08.365Z,26.10
2022-12-14T08:50:41.320Z,25.42
2022-12-14T08:53:14.228Z,30.42
2022-12-14T08:55:47.848Z,27.42
2022-12-14T08:58:20.732Z,30.77
2022-12-14T09:01:01.802Z,26.38
2022-12-14T09:03:36.478Z,27.08
2022-12-14T09:06:11.090Z,25.13
2022-12-14T09:08:44.002Z,25.52
2022-12-14T09:11:19.071Z,28.20
2022-12-14T09:13:54.728Z,29.55
2022-12-14T09:16:28.133Z,25.52
2022-12-14T09:19:02.798Z,28.02
2022-12-14T09:21:35.860Z,29.02
2022-12-14T09:24:09.944Z,30.25
2022-12-14T09:26:43.084Z,28.42
2022-12-14T09:29:22.633Z,31.75
2022-12-14T09:31:56.009Z,29.45
2022-12-14T09:34:30.711Z,29.08
2022-12-14T09:37:07.892Z,32.53
2022-12-14T09:39:41.187Z,33.15
2022-12-14T09:42:30.645Z,26.08
2022-12-14T09:45:15.266Z,25.20
2022-12-14T09:47:57.703Z,30.33
2022-12-14T09:50:32.503Z,24.73
2022-12-14T09:53:09.812Z,26.88
2022-12-14T09:55:46.069Z,23.38
2022-12-14T09:58:22.391Z,26.67
2022-12-14T10:01:05.911Z,25.17
2022-12-14T10:03:53.254Z,25.25
2022-12-14T10:06:38.155Z,25.35
2022-12-14T10:09:22.230Z,25.35
2022-12-14T10:12:05.147Z,26.52
2022-12-14T10:14:58.734Z,21.45
2022-12-14T10:17:44.953Z,18.15
2022-12-14T10:20:25.126Z,19.77
2022-12-14T10:23:03.901Z,20.88
2022-12-14T10:25:40.044Z,20.75
2022-12-14T10:28:18.590Z,19.92
2022-12-14T10:30:58.976Z,18.67
2022-12-14T10:33:33.232Z,16.00
2022-12-14T10:36:18.522Z,18.27
2022-12-14T10:38:59.943Z,17.52
2022-12-14T10:41:49.432Z,17.48
2022-12-14T10:44:31.179Z,15.75
2022-12-14T10:47:12.856Z,20.58
2022-12-14T10:49:55.198Z,18.23
2022-12-14T10:52:36.889Z,20.73
2022-12-14T10:55:19.088Z,27.58
2022-12-14T10:57:52.344Z,23.25
2022-12-14T11:00:26.164Z,27.75
2022-12-14T11:03:01.232Z,26.27
2022-12-14T11:05:40.737Z,30.25
2022-12-14T11:08:40.884Z,28.08
2022-12-14T11:11:20.308Z,25.67
2022-12-14T11:13:57.682Z,24.00
2022-12-14T11:16:38.483Z,21.52
2022-12-14T11:19:18.313Z,22.67
2022-12-14T11:21:52.650Z,20.40
2022-12-14T11:24:28.093Z,21.50
2022-12-14T11:27:06.360Z,16.98
2022-12-14T11:29:41.527Z,14.82
2022-12-14T11:32:23.860Z,13.45
2022-12-14T11:34:59.156Z,14.38
2022-12-14T11:37:33.748Z,13.50
2022-12-14T11:40:09.213Z,10.00
2022-12-14T11:42:49.339Z,13.00
2022-12-14T11:45:37.495Z,13.00
2022-12-14T11:48:24.224Z,11.25
2022-12-14T11:51:12.664Z,11.02
2022-12-14T11:54:02.116Z,11.88
2022-12-14T11:56:39.084Z,10.98
2022-12-14T11:59:18.755Z,11.38
2022-12-14T12:01:52.218Z,14.35
2022-12-14T12:04:25.814Z,12.30
2022-12-14T12:07:04.343Z,12.07
2022-12-14T12:09:43.018Z,12.27
2022-12-14T12:12:21.776Z,12.18
2022-12-14T12:15:00.903Z,12.38
2022-12-14T12:17:44.503Z,14.15
2022-12-14T12:20:29.544Z,12.85
2022-12-14T12:23:11.979Z,12.68
2022-12-14T12:25:49.577Z,14.20
2022-12-14T12:28:28.463Z,16.17
2022-12-14T12:31:10.965Z,11.93
2022-12-14T12:33:48.776Z,12.90
2022-12-14T12:36:24.505Z,13.70
2022-12-14T12:39:05.674Z,11.73
2022-12-14T12:41:51.370Z,15.90
2022-12-14T12:44:36.853Z,12.35
2022-12-14T12:47:31.180Z,13.20
2022-12-14T12:50:15.611Z,13.50
2022-12-14T12:53:02.712Z,12.80
2022-12-14T12:55:42.971Z,15.68
2022-12-14T12:58:34.204Z,14.30
2022-12-14T13:01:20.639Z,14.15
2022-12-14T13:03:58.192Z,14.70
2022-12-14T13:06:33.659Z,16.75
2022-12-14T13:09:16.808Z,17.38
2022-12-14T13:11:50.485Z,20.00
2022-12-14T13:14:31.103Z,15.98
2022-12-14T13:17:08.251Z,14.52
2022-12-14T13:19:51.900Z,15.73
2022-12-14T13:22:29.746Z,15.48
2022-12-14T13:25:08.261Z,15.30
2022-12-14T13:28:01.223Z,17.15
2022-12-14T13:30:49.924Z,15.23
2022-12-14T13:33:51.874Z,14.90
2022-12-14T13:37:21.451Z,12.30
2022-12-14T13:40:34.467Z,14.57
2022-12-14T13:43:22.288Z,12.95
2022-12-14T13:45:56.354Z,13.68
2022-12-14T13:48:35.759Z,13.95
2022-12-14T13:51:11.650Z,13.68
2022-12-14T13:53:50.289Z,13.65
2022-12-14T13:56:33.254Z,14.02
2022-12-14T13:59:20.596Z,14.30
2022-12-14T14:01:58.319Z,12.95
2022-12-14T14:04:32.281Z,16.77
2022-12-14T14:07:39.409Z,14.48
2022-12-14T14:10:30.853Z,13.55
2022-12-14T14:13:44.027Z,15.30
2022-12-14T14:16:29.884Z,14.10
2022-12-14T14:19:14.393Z,14.38
2022-12-14T14:25:09.455Z,15.57
2022-12-14T14:27:50.818Z,14.10
2022-12-14T14:30:29.175Z,13.55
2022-12-14T14:33:43.115Z,14.63
2022-12-14T14:36:09.373Z,14.00
2022-12-14T14:38:42.979Z,14.18
2022-12-14T14:41:25.036Z,14.75
2022-12-14T14:44:01.567Z,17.60
2022-12-14T14:46:39.467Z,13.07
2022-12-14T14:49:23.529Z,13.85
2022-12-14T14:51:56.898Z,11.93
2022-12-14T14:55:15.865Z,11.90
2022-12-14T14:57:57.467Z,13.48
2022-12-14T15:00:31.628Z,10.77
2022-12-14T15:03:08.697Z,11.48
2022-12-14T15:05:45.619Z,11.68
2022-12-14T15:08:22.044Z,11.18
2022-12-14T15:10:56.324Z,12.25
2022-12-14T15:13:34.610Z,11.77
2022-12-14T15:16:22.431Z,11.90
2022-12-14T15:18:56.830Z,10.93
2022-12-14T15:21:30.156Z,12.35
2022-12-14T15:24:03.169Z,10.15
2022-12-14T15:26:36.045Z,12.52
2022-12-14T15:29:18.043Z,8.95
2022-12-14T15:31:59.284Z,9.57
2022-12-14T15:34:34.552Z,8.63
2022-12-14T15:37:07.491Z,8.80
2022-12-14T15:39:43.712Z,10.13
2022-12-14T15:42:18.523Z,9.20
2022-12-14T15:44:52.393Z,8.95
2022-12-14T15:47:28.345Z,8.32
2022-12-14T15:50:23.456Z,9.18
2022-12-14T15:53:00.172Z,9.70
2022-12-14T15:55:36.010Z,10.02
2022-12-14T15:58:12.190Z,10.57
2022-12-14T16:00:48.168Z,11.43
2022-12-14T16:03:29.907Z,10.35
2022-12-14T16:06:06.018Z,11.20
2022-12-14T16:08:44.301Z,12.23
2022-12-14T16:11:24.619Z,12.48
2022-12-14T16:14:01.881Z,14.30
2022-12-14T16:16:34.905Z,12.52
2022-12-14T16:19:26.671Z,12.65
2022-12-14T16:22:19.671Z,12.88
2022-12-14T16:27:38.255Z,10.32
2022-12-14T16:30:21.810Z,11.63
2022-12-14T16:33:08.546Z,10.43
2022-12-14T16:35:41.669Z,12.45
2022-12-14T16:38:17.572Z,14.20
2022-12-14T16:40:55.562Z,14.40
2022-12-14T16:43:32.805Z,13.05
2022-12-14T16:46:18.533Z,13.00
2022-12-14T16:49:25.313Z,12.90
2022-12-14T16:52:08.843Z,12.68
2022-12-14T16:54:44.039Z,12.80
2022-12-14T16:57:24.328Z,12.70
2022-12-14T17:00:01.452Z,14.63
2022-12-14T17:02:36.872Z,13.82
2022-12-14T17:05:17.949Z,14.73
2022-12-14T17:07:52.562Z,15.83
2022-12-14T17:10:27.425Z,14.75
2022-12-14T17:13:01.850Z,15.85
2022-12-14T17:15:36.282Z,18.67
2022-12-14T17:18:12.322Z,15.27
2022-12-14T17:20:47.011Z,18.92
2022-12-14T17:23:20.578Z,16.63
2022-12-14T17:25:55.055Z,16.02
2022-12-14T17:28:30.152Z,18.08
2022-12-14T17:31:04.260Z,17.83
2022-12-14T17:33:38.239Z,16.92
2022-12-14T17:36:11.341Z,15.63
2022-12-14T17:38:44.756Z,15.93
2022-12-14T17:41:26.786Z,16.35
2022-12-14T17:43:59.908Z,13.88
2022-12-14T17:46:33.046Z,14.70
2022-12-14T17:49:07.010Z,13.95
2022-12-14T17:51:42.217Z,12.38
2022-12-14T17:54:18.255Z,13.27
2022-12-14T17:57:24.478Z,12.85
2022-12-14T18:00:11.127Z,14.80
2022-12-14T18:02:46.238Z,13.90
2022-12-14T18:05:26.060Z,14.80
2022-12-14T18:07:59.273Z,14.93
2022-12-14T18:10:32.436Z,14.35
2022-12-14T18:13:07.129Z,15.65
2022-12-14T18:15:43.196Z,17.65
2022-12-14T18:18:16.596Z,15.20
2022-12-14T18:20:52.836Z,16.45
2022-12-14T18:23:27.804Z,16.70
2022-12-14T18:26:02.699Z,16.33
2022-12-14T18:28:37.774Z,16.48
2022-12-14T18:31:20.732Z,16.42
2022-12-14T18:33:54.641Z,19.65
2022-12-14T18:36:27.826Z,16.63
2022-12-14T18:39:01.301Z,18.30
2022-12-14T18:41:34.849Z,14.93
2022-12-14T18:44:11.947Z,16.45
2022-12-14T18:46:49.188Z,15.77
2022-12-14T18:49:23.240Z,15.98
2022-12-14T18:52:00.594Z,18.15
2022-12-14T18:54:33.657Z,16.52
2022-12-14T18:57:07.003Z,17.50
2022-12-14T18:59:46.932Z,16.70
2022-12-14T19:02:19.983Z,15.80
2022-12-14T19:04:55.359Z,18.90
2022-12-14T19:07:35.080Z,18.45
2022-12-14T19:10:08.706Z,16.85
2022-12-14T19:12:48.589Z,16.80
2022-12-14T19:15:25.203Z,17.70
2022-12-14T19:17:58.911Z,16.35
2022-12-14T19:20:31.884Z,16.95
2022-12-14T19:23:05.345Z,15.65
2022-12-14T19:25:38.647Z,16.67
2022-12-14T19:28:30.888Z,15.80
2022-12-14T19:31:07.083Z,15.68
2022-12-14T19:33:41.450Z,17.67
2022-12-14T19:36:14.583Z,18.02
2022-12-14T19:38:49.124Z,18.52
2022-12-14T19:41:23.340Z,17.80
2022-12-14T19:44:04.849Z,15.63
2022-12-14T19:46:41.805Z,16.83
2022-12-14T19:49:16.699Z,14.63
2022-12-14T19:51:50.795Z,15.57
2022-12-14T19:54:24.294Z,15.98
2022-12-14T19:56:58.057Z,16.10
2022-12-14T19:59:31.033Z,15.55
2022-12-14T20:02:05.773Z,16.42
2022-12-14T20:04:39.981Z,18.27
2022-12-14T20:07:18.423Z,17.77
2022-12-14T20:09:51.588Z,18.52
2022-12-14T20:12:25.123Z,17.75
2022-12-14T20:15:00.978Z,17.73
2022-12-14T20:17:54.374Z,17.80
2022-12-14T20:20:32.063Z,15.98
2022-12-14T20:23:05.396Z,17.42
2022-12-14T20:25:41.798Z,15.65
2022-12-14T20:28:14.906Z,15.68
2022-12-14T20:30:49.587Z,17.95
2022-12-14T20:33:29.927Z,18.00
2022-12-14T20:36:08.204Z,17.10
2022-12-14T20:38:43.614Z,17.45
2022-12-14T20:41:20.959Z,16.05
2022-12-14T20:43:56.737Z,18.92
2022-12-14T20:46:41.253Z,17.35
2022-12-14T20:49:22.641Z,17.52
2022-12-14T20:51:58.238Z,15.73
2022-12-14T20:54:31.369Z,16.13
2022-12-14T20:57:06.412Z,17.77
2022-12-14T20:59:39.506Z,15.35
2022-12-14T21:02:20.295Z,17.58
2022-12-14T21:04:59.691Z,16.63
2022-12-14T21:07:33.561Z,16.13
2022-12-14T21:10:07.637Z,16.25
2022-12-14T21:12:42.468Z,13.82
2022-12-14T21:15:15.502Z,18.08
2022-12-14T21:17:50.280Z,16.27
2022-12-14T21:20:25.021Z,14.52
2022-12-14T21:22:57.975Z,17.75
2022-12-14T21:25:30.851Z,15.75
2022-12-14T21:28:08.669Z,15.90
2022-12-14T21:30:41.547Z,15.13
2022-12-14T21:33:14.772Z,16.83
2022-12-14T21:35:49.292Z,16.60
2022-12-14T21:38:22.365Z,19.67
2022-12-14T21:41:25.030Z,17.52
2022-12-14T21:44:00.102Z,18.25
2022-12-14T21:46:33.237Z,17.33
2022-12-14T21:49:06.746Z,16.08
2022-12-14T21:51:41.293Z,17.65
2022-12-14T21:54:15.691Z,16.70
2022-12-14T21:57:16.762Z,18.00
2022-12-14T21:59:49.782Z,15.02
2022-12-14T22:02:25.641Z,15.52
2022-12-14T22:04:58.833Z,18.98
2022-12-14T22:07:35.035Z,16.45
2022-12-14T22:10:08.448Z,17.10
2022-12-14T22:12:41.348Z,16.15
2022-12-14T22:15:17.048Z,18.25
2022-12-14T22:17:50.740Z,16.20
2022-12-14T22:20:24.835Z,12.30
2022-12-14T22:23:00.322Z,13.63
2022-12-14T22:25:34.274Z,11.88
2022-12-14T22:28:08.601Z,11.95
2022-12-14T22:30:44.198Z,12.52
2022-12-14T22:33:17.107Z,10.20
2022-12-14T22:35:50.140Z,9.43
2022-12-14T22:38:24.722Z,9.98
2022-12-14T22:41:03.128Z,8.90
2022-12-14T22:43:37.544Z,9.82
2022-12-14T22:46:12.647Z,9.25
2022-12-14T22:48:47.034Z,9.95
2022-12-14T22:51:20.758Z,11.52
2022-12-14T22:53:55.279Z,10.60
2022-12-14T22:56:33.045Z,9.85
2022-12-14T22:59:08.866Z,9.70
2022-12-14T23:01:42.272Z,12.40
2022-12-14T23:04:15.660Z,9.95
2022-12-14T23:06:48.696Z,10.35
2022-12-14T23:09:40.771Z,12.10
2022-12-14T23:12:31.011Z,12.85
2022-12-14T23:15:21.814Z,13.15
2022-12-14T23:18:13.558Z,13.38
2022-12-14T23:21:03.780Z,14.73
2022-12-14T23:23:56.371Z,14.45
2022-12-14T23:26:48.567Z,13.20
2022-12-14T23:29:39.014Z,14.13
2022-12-14T23:32:29.506Z,13.98
2022-12-14T23:35:19.613Z,13.00
2022-12-14T23:38:10.059Z,10.18
2022-12-14T23:41:00.501Z,10.40
2022-12-14T23:43:52.202Z,10.90
2022-12-14T23:46:42.548Z,9.73
2022-12-14T23:49:32.923Z,10.50
2022-12-14T23:52:23.970Z,11.63
2022-12-14T23:55:14.748Z,10.43
2022-12-14T23:58:05.164Z,11.90
